Riacho Grande, Brazil
Current Conditions -  °F | °C
As of 4:00 AM on Saturday 25 Oct 2014 (Local Time) from SBSP Reporting Station
Clear Clear  
Wind Chill: 66°   Ceiling: Unl
Heat Index: 66°   Visibility: 4mi
Dew Point: 59°   Wind: 2mph
Humidity: 78%   Direction: 240°WSW
Pressure: 30"   Gusts: NA
Location:  23.8°S, 46.58°W
Report Text: SBSP 250600Z 24002KT 6000 NSC 19/15 Q1016
Loading
Personal Weather Stations






























Interactive Weather Map
Tropical Storm Tracking
New forecast layout! Learn more

10-Day Weather Forecast

Advertisements
Track Severe Weather on mobile